Brookland, Arkansas
Current Conditions -  °F | °C
As of 5:53 PM on Saturday 25 Oct 2014 (Local Time) from KJBR Reporting Station
Clear Clear  
Wind Chill: 79°   Ceiling: Unl
Heat Index: 81°   Visibility: 10mi
Dew Point: 64°   Wind: 3mph
Humidity: 60%   Direction: 190°S
Pressure: 30"   Gusts: NA
Location:  35.9°N, 90.58°W
Report Text: KJBR 252253Z AUTO 19003KT 10SM CLR 26/18 A3000 RMK AO2 SLP156 T02610178
Loading
Personal Weather Stations






























Interactive Weather Map
Tropical Storm Tracking
New forecast layout! Learn more

10-Day Weather Forecast

Advertisements
Track Severe Weather on mobile